createdAt,value
2019-03-01T00:00:29.439Z,12.07
2019-03-01T00:02:26.191Z,12.25
2019-03-01T00:04:28.229Z,12.73
2019-03-01T00:06:39.516Z,12.07
2019-03-01T00:08:55.612Z,11.55
2019-03-01T00:10:54.612Z,12.20
2019-03-01T00:13:03.156Z,11.33
2019-03-01T00:15:23.149Z,10.88
2019-03-01T00:17:22.823Z,10.53
2019-03-01T00:19:27.886Z,10.58
2019-03-01T00:21:33.082Z,12.07
2019-03-01T00:23:35.324Z,10.53
2019-03-01T00:25:34.683Z,10.40
2019-03-01T00:27:30.980Z,9.55
2019-03-01T00:29:39.407Z,9.68
2019-03-01T00:32:10.253Z,9.95
2019-03-01T00:34:24.960Z,9.20
2019-03-01T00:36:46.851Z,10.58
2019-03-01T00:39:12.683Z,9.95
2019-03-01T00:41:20.917Z,10.30
2019-03-01T00:43:23.057Z,10.03
2019-03-01T00:45:15.853Z,10.45
2019-03-01T00:49:01.032Z,9.90
2019-03-01T00:50:53.881Z,10.78
2019-03-01T00:52:46.700Z,10.00
2019-03-01T00:54:39.983Z,8.95
2019-03-01T00:56:32.856Z,9.53
2019-03-01T00:58:25.596Z,8.58
2019-03-01T01:00:27.772Z,8.25
2019-03-01T01:02:20.636Z,9.05
2019-03-01T01:04:13.544Z,7.35
2019-03-01T01:07:59.135Z,6.08
2019-03-01T01:11:44.069Z,6.40
2019-03-01T01:13:37.257Z,4.30
2019-03-01T01:15:30.106Z,4.08
2019-03-01T01:17:23.125Z,4.20
2019-03-01T01:19:15.993Z,4.58
2019-03-01T01:21:09.204Z,4.78
2019-03-01T01:23:02.464Z,4.10
2019-03-01T01:24:55.192Z,5.08
2019-03-01T01:26:47.981Z,3.87
2019-03-01T01:28:40.795Z,3.77
2019-03-01T01:30:33.838Z,4.28
2019-03-01T01:32:26.688Z,4.17
2019-03-01T01:34:19.552Z,4.05
2019-03-01T01:36:12.569Z,3.90
2019-03-01T01:38:05.295Z,4.30
2019-03-01T01:39:58.161Z,3.62
2019-03-01T01:41:51.052Z,3.80
2019-03-01T01:45:36.204Z,3.65
2019-03-01T01:47:29.105Z,4.12
2019-03-01T01:49:21.952Z,3.62
2019-03-01T01:53:07.791Z,3.47
2019-03-01T01:55:00.556Z,2.98
2019-03-01T01:56:53.907Z,3.92
2019-03-01T01:58:46.655Z,3.83
2019-03-01T02:00:39.496Z,3.50
2019-03-01T02:02:32.364Z,3.55
2019-03-01T02:04:28.443Z,3.22
2019-03-01T02:06:21.478Z,3.65
2019-03-01T02:10:09.335Z,3.10
2019-03-01T02:12:02.107Z,3.47
2019-03-01T02:13:55.035Z,2.70
2019-03-01T02:15:47.880Z,3.00
2019-03-01T02:17:40.504Z,5.22
2019-03-01T02:19:33.408Z,2.87
2019-03-01T02:21:26.032Z,2.17
2019-03-01T02:25:12.152Z,3.25
2019-03-01T02:27:22.729Z,2.98
2019-03-01T02:29:15.591Z,2.98
2019-03-01T02:31:10.336Z,3.02
2019-03-01T02:33:03.359Z,3.05
2019-03-01T02:34:56.275Z,2.75
2019-03-01T02:38:41.203Z,3.17
2019-03-01T02:40:37.595Z,4.00
2019-03-01T02:42:30.696Z,2.98
2019-03-01T02:44:23.884Z,2.55
2019-03-01T02:46:16.676Z,3.08
2019-03-01T02:48:09.578Z,2.92
2019-03-01T02:50:02.572Z,3.37
2019-03-01T02:51:56.055Z,2.52
2019-03-01T02:56:00.226Z,3.15
2019-03-01T03:01:59.398Z,2.75
2019-03-01T03:03:52.230Z,3.25
2019-03-01T03:05:59.126Z,2.62
2019-03-01T03:07:53.686Z,2.58
2019-03-01T03:09:46.885Z,2.60
2019-03-01T03:11:39.526Z,3.25
2019-03-01T03:13:32.346Z,2.52
2019-03-01T03:15:29.454Z,2.08
2019-03-01T03:17:22.531Z,3.02
2019-03-01T03:21:07.877Z,2.30
2019-03-01T03:23:00.628Z,2.75
2019-03-01T03:24:53.955Z,2.67
2019-03-01T03:26:48.613Z,2.70
2019-03-01T03:28:41.498Z,3.25
2019-03-01T03:30:34.496Z,2.98
2019-03-01T03:32:27.656Z,3.42
2019-03-01T03:34:20.862Z,2.55
2019-03-01T03:36:13.365Z,2.50
2019-03-01T03:38:06.165Z,2.58
2019-03-01T03:41:51.480Z,3.27
2019-03-01T03:43:44.340Z,2.92
2019-03-01T03:45:37.299Z,3.17
2019-03-01T03:47:30.185Z,3.12
2019-03-01T03:49:23.195Z,3.05
2019-03-01T03:51:16.014Z,3.85
2019-03-01T03:53:08.688Z,3.40
2019-03-01T03:55:01.287Z,2.98
2019-03-01T03:56:54.190Z,3.15
2019-03-01T03:58:48.627Z,3.12
2019-03-01T04:00:41.529Z,3.25
2019-03-01T04:04:26.998Z,3.40
2019-03-01T04:06:20.499Z,4.00
2019-03-01T04:08:13.764Z,3.75
2019-03-01T04:12:00.313Z,3.17
2019-03-01T04:13:53.509Z,4.03
2019-03-01T04:15:46.365Z,5.53
2019-03-01T04:17:39.213Z,4.25
2019-03-01T04:19:32.047Z,3.65
2019-03-01T04:21:25.432Z,4.15
2019-03-01T04:25:10.503Z,3.67
2019-03-01T04:27:03.357Z,3.75
2019-03-01T04:28:55.916Z,3.90
2019-03-01T04:30:48.645Z,4.62
2019-03-01T04:32:41.427Z,3.98
2019-03-01T04:34:34.248Z,3.95
2019-03-01T04:38:19.696Z,3.80
2019-03-01T04:40:13.963Z,3.50
2019-03-01T04:42:07.136Z,3.87
2019-03-01T04:44:00.220Z,4.05
2019-03-01T04:45:53.385Z,5.60
2019-03-01T04:47:46.183Z,3.60
2019-03-01T04:49:39.029Z,4.40
2019-03-01T04:51:39.936Z,3.52
2019-03-01T04:53:26.754Z,3.80
2019-03-01T04:55:25.044Z,3.52
2019-03-01T04:57:18.475Z,3.42
2019-03-01T04:59:11.629Z,4.60
2019-03-01T05:01:04.982Z,3.40
2019-03-01T05:02:58.059Z,3.87
2019-03-01T05:04:50.880Z,3.35
2019-03-01T05:06:43.820Z,3.65
2019-03-01T05:08:36.723Z,3.27
2019-03-01T05:10:29.813Z,3.30
2019-03-01T05:12:22.633Z,3.30
2019-03-01T05:14:15.629Z,3.10
2019-03-01T05:18:00.917Z,3.90
2019-03-01T05:19:53.815Z,3.55
2019-03-01T05:21:46.656Z,2.90
2019-03-01T05:23:39.395Z,3.47
2019-03-01T05:25:32.356Z,3.08
2019-03-01T05:27:24.876Z,3.52
2019-03-01T05:29:18.087Z,2.67
2019-03-01T05:33:03.516Z,2.80
2019-03-01T05:34:56.204Z,2.22
2019-03-01T05:38:41.354Z,3.33
2019-03-01T05:40:34.320Z,3.10
2019-03-01T05:42:28.349Z,2.75
2019-03-01T05:44:22.496Z,3.50
2019-03-01T05:46:16.489Z,3.12
2019-03-01T05:48:09.742Z,2.17
2019-03-01T05:50:02.706Z,2.33
2019-03-01T05:51:57.660Z,2.52
2019-03-01T05:53:50.582Z,2.47
2019-03-01T05:55:43.508Z,2.55
2019-03-01T05:57:36.969Z,2.22
2019-03-01T05:59:29.690Z,2.58
2019-03-01T06:01:25.849Z,3.05
2019-03-01T06:03:24.939Z,2.45
2019-03-01T06:05:17.634Z,2.95
2019-03-01T06:07:16.837Z,2.90
2019-03-01T06:09:48.216Z,3.02
2019-03-01T06:12:09.026Z,4.85
2019-03-01T06:14:05.248Z,3.70
2019-03-01T06:16:23.668Z,2.83
2019-03-01T06:18:37.698Z,2.40
2019-03-01T06:22:41.555Z,3.30
2019-03-01T06:24:49.664Z,3.92
2019-03-01T06:26:55.212Z,2.77
2019-03-01T06:28:51.468Z,3.70
2019-03-01T06:31:09.818Z,3.70
2019-03-01T06:33:13.674Z,3.40
2019-03-01T06:35:09.861Z,3.02
2019-03-01T06:37:05.908Z,3.55
2019-03-01T06:39:36.472Z,3.50
2019-03-01T06:41:51.395Z,2.83
2019-03-01T06:44:13.058Z,3.47
2019-03-01T06:46:11.898Z,4.15
2019-03-01T06:48:04.896Z,3.77
2019-03-01T06:49:59.133Z,3.45
2019-03-01T06:51:52.154Z,4.12
2019-03-01T06:53:45.085Z,3.00
2019-03-01T06:57:31.134Z,3.70
2019-03-01T06:59:24.197Z,3.12
2019-03-01T07:01:17.566Z,3.37
2019-03-01T07:03:10.489Z,3.55
2019-03-01T07:05:03.477Z,2.65
2019-03-01T07:06:38.199Z,2.60
2019-03-01T07:08:12.499Z,2.45
2019-03-01T07:09:46.786Z,2.17
2019-03-01T07:11:21.060Z,2.02
2019-03-01T07:12:56.357Z,2.10
2019-03-01T07:14:30.920Z,2.27
2019-03-01T07:16:05.178Z,2.25
2019-03-01T07:17:39.562Z,2.00
2019-03-01T07:19:13.834Z,1.92
2019-03-01T07:20:48.080Z,2.30
2019-03-01T07:22:22.697Z,1.72
2019-03-01T07:23:57.155Z,2.15
2019-03-01T07:25:31.629Z,2.50
2019-03-01T07:27:06.957Z,2.17
2019-03-01T07:28:41.508Z,2.00
2019-03-01T07:30:34.614Z,1.82
2019-03-01T07:32:27.651Z,3.50
2019-03-01T07:34:20.624Z,2.20
2019-03-01T07:36:14.754Z,1.90
2019-03-01T07:39:59.688Z,2.25
2019-03-01T07:41:52.825Z,2.80
2019-03-01T07:43:46.113Z,2.70
2019-03-01T07:45:38.854Z,2.85
2019-03-01T07:47:31.769Z,2.90
2019-03-01T07:49:24.442Z,2.30
2019-03-01T07:51:17.426Z,2.62
2019-03-01T07:53:10.643Z,2.25
2019-03-01T07:55:06.318Z,2.17
2019-03-01T07:56:59.483Z,4.72
2019-03-01T07:58:52.597Z,2.20
2019-03-01T08:00:47.231Z,2.40
2019-03-01T08:02:40.805Z,2.20
2019-03-01T08:04:34.471Z,2.27
2019-03-01T08:08:19.426Z,2.77
2019-03-01T08:12:09.115Z,2.85
2019-03-01T08:15:54.641Z,2.92
2019-03-01T08:17:47.497Z,2.70
2019-03-01T08:21:32.453Z,3.20
2019-03-01T08:25:22.611Z,2.60
2019-03-01T08:27:12.282Z,3.05
2019-03-01T08:30:57.288Z,1.90
2019-03-01T08:32:50.149Z,2.60
2019-03-01T08:34:42.964Z,3.05
2019-03-01T08:36:38.590Z,2.95
2019-03-01T08:38:30.776Z,2.22
2019-03-01T08:40:23.984Z,2.75
2019-03-01T08:42:16.764Z,2.62
2019-03-01T08:44:09.817Z,2.70
2019-03-01T08:46:05.420Z,2.52
2019-03-01T08:47:58.889Z,3.15
2019-03-01T08:49:52.088Z,2.20
2019-03-01T08:53:37.334Z,2.98
2019-03-01T08:55:31.048Z,2.62
2019-03-01T08:57:26.551Z,2.90
2019-03-01T08:59:18.682Z,2.10
2019-03-01T09:01:15.706Z,2.55
2019-03-01T09:03:12.295Z,2.40
2019-03-01T09:05:26.162Z,3.25
2019-03-01T09:07:19.220Z,2.17
2019-03-01T09:09:11.877Z,2.52
2019-03-01T09:11:05.604Z,2.60
2019-03-01T09:12:59.156Z,2.55
2019-03-01T09:14:52.456Z,3.08
2019-03-01T09:18:37.775Z,2.72
2019-03-01T09:20:32.538Z,3.30
2019-03-01T09:22:28.010Z,3.02
2019-03-01T09:24:19.894Z,2.72
2019-03-01T09:26:12.732Z,3.00
2019-03-01T09:28:05.595Z,3.12
2019-03-01T09:31:54.383Z,2.30
2019-03-01T09:33:47.603Z,2.30
2019-03-01T09:35:43.200Z,2.42
2019-03-01T09:37:36.671Z,2.42
2019-03-01T09:39:29.705Z,3.02
2019-03-01T09:41:22.772Z,3.33
2019-03-01T09:45:13.205Z,4.58
2019-03-01T09:47:05.073Z,3.10
2019-03-01T09:48:58.442Z,3.75
2019-03-01T09:50:51.478Z,3.17
2019-03-01T09:52:46.651Z,3.85
2019-03-01T09:54:40.124Z,3.67
2019-03-01T09:56:33.173Z,3.08
2019-03-01T09:58:26.205Z,2.33
2019-03-01T10:02:12.852Z,2.30
2019-03-01T10:04:06.294Z,2.70
2019-03-01T10:05:59.217Z,2.30
2019-03-01T10:07:52.108Z,2.47
2019-03-01T10:09:45.624Z,2.72
2019-03-01T10:11:39.036Z,2.98
2019-03-01T10:15:24.685Z,2.98
2019-03-01T10:19:10.045Z,2.15
2019-03-01T10:21:02.739Z,2.15
2019-03-01T10:22:55.648Z,3.05
2019-03-01T10:24:49.520Z,2.77
2019-03-01T10:26:42.271Z,1.82
2019-03-01T10:30:28.404Z,2.12
2019-03-01T10:32:21.410Z,1.75
2019-03-01T10:34:14.356Z,1.67
2019-03-01T10:37:59.404Z,1.75
2019-03-01T10:39:55.544Z,1.75
2019-03-01T10:41:48.615Z,2.20
2019-03-01T10:43:41.231Z,1.70
2019-03-01T10:45:34.216Z,2.20
2019-03-01T10:49:19.173Z,1.62
2019-03-01T10:51:12.046Z,1.75
2019-03-01T10:54:56.934Z,1.45
2019-03-01T10:56:49.948Z,1.40
2019-03-01T11:00:35.244Z,1.80
2019-03-01T11:02:28.037Z,1.15
2019-03-01T11:04:21.301Z,0.75
2019-03-01T11:06:14.153Z,1.47
2019-03-01T11:08:07.471Z,1.00
2019-03-01T11:10:00.220Z,1.17
2019-03-01T11:11:52.768Z,1.15
2019-03-01T11:13:45.674Z,1.60
2019-03-01T11:15:38.593Z,1.35
2019-03-01T11:17:31.640Z,1.30
2019-03-01T11:21:16.667Z,0.70
2019-03-01T11:25:02.182Z,0.98
2019-03-01T11:26:55.524Z,1.32
2019-03-01T11:28:48.265Z,1.20
2019-03-01T11:30:41.163Z,1.20
2019-03-01T11:32:34.111Z,1.22
2019-03-01T11:34:27.428Z,1.35
2019-03-01T11:36:20.309Z,1.20
2019-03-01T11:38:13.136Z,1.12
2019-03-01T11:40:12.070Z,1.00
2019-03-01T11:42:05.251Z,1.10
2019-03-01T11:43:58.103Z,1.35
2019-03-01T11:47:43.525Z,1.47
2019-03-01T11:49:36.594Z,1.50
2019-03-01T11:53:21.679Z,1.62
2019-03-01T11:55:14.508Z,1.20
2019-03-01T11:57:07.202Z,1.52
2019-03-01T11:59:00.192Z,1.50
2019-03-01T12:02:45.874Z,2.85
2019-03-01T12:04:38.677Z,1.50
2019-03-01T12:06:31.853Z,1.00
2019-03-01T12:08:24.749Z,1.57
2019-03-01T12:10:31.237Z,0.85
2019-03-01T12:12:24.270Z,0.70
2019-03-01T12:14:17.281Z,1.20
2019-03-01T12:16:10.072Z,1.27
2019-03-01T12:18:03.212Z,1.02
2019-03-01T12:19:56.089Z,0.60
2019-03-01T12:23:41.519Z,0.60
2019-03-01T12:27:27.480Z,1.07
2019-03-01T12:29:19.992Z,0.98
2019-03-01T12:31:13.420Z,0.72
2019-03-01T12:33:06.614Z,1.02
2019-03-01T12:34:59.445Z,1.02
2019-03-01T12:36:52.604Z,1.10
2019-03-01T12:38:45.603Z,0.90
2019-03-01T12:40:38.190Z,0.90
2019-03-01T12:42:31.187Z,0.62
2019-03-01T12:44:24.342Z,2.85
2019-03-01T12:46:18.503Z,0.95
2019-03-01T12:50:05.804Z,0.82
2019-03-01T12:51:58.823Z,0.90
2019-03-01T12:55:44.081Z,0.70
2019-03-01T12:57:37.241Z,0.75
2019-03-01T12:59:30.206Z,1.00
2019-03-01T13:03:15.347Z,1.10
2019-03-01T13:05:11.137Z,0.80
2019-03-01T13:07:04.007Z,0.95
2019-03-01T13:08:56.999Z,1.05
2019-03-01T13:10:49.699Z,1.00
2019-03-01T13:12:42.448Z,1.10
2019-03-01T13:14:36.780Z,1.15
2019-03-01T13:16:29.912Z,1.17
2019-03-01T13:18:22.927Z,1.30
2019-03-01T13:20:18.064Z,0.85
2019-03-01T13:22:11.188Z,1.10
2019-03-01T13:25:56.410Z,1.25
2019-03-01T13:27:52.366Z,1.30
2019-03-01T13:29:44.061Z,1.20
2019-03-01T13:31:38.317Z,1.30
2019-03-01T13:33:31.216Z,1.25
2019-03-01T13:37:20.392Z,1.10
2019-03-01T13:39:12.863Z,1.10
2019-03-01T13:41:06.061Z,1.45
2019-03-01T13:42:59.148Z,1.30
2019-03-01T13:44:51.736Z,1.32
2019-03-01T13:46:45.658Z,0.98
2019-03-01T13:48:38.635Z,0.98
2019-03-01T13:50:31.597Z,2.20
2019-03-01T13:52:26.797Z,1.10
2019-03-01T13:54:18.844Z,1.20
2019-03-01T13:58:03.760Z,0.93
2019-03-01T14:01:49.416Z,1.00
2019-03-01T14:03:42.059Z,1.05
2019-03-01T14:05:34.913Z,1.02
2019-03-01T14:07:27.759Z,0.82
2019-03-01T14:09:23.325Z,1.30
2019-03-01T14:11:20.435Z,0.98
2019-03-01T14:13:11.237Z,1.00
2019-03-01T14:15:07.302Z,1.20
2019-03-01T14:17:00.176Z,1.40
2019-03-01T14:18:52.846Z,1.00
2019-03-01T14:20:45.756Z,1.20
2019-03-01T14:22:38.921Z,1.20
2019-03-01T14:24:31.596Z,2.25
2019-03-01T14:26:24.831Z,1.30
2019-03-01T14:30:15.405Z,1.10
2019-03-01T14:32:08.287Z,0.95
2019-03-01T14:34:00.843Z,1.20
2019-03-01T14:35:53.755Z,1.20
2019-03-01T14:37:46.744Z,1.07
2019-03-01T14:39:41.747Z,1.00
2019-03-01T14:41:35.637Z,0.93
2019-03-01T14:43:28.611Z,1.00
2019-03-01T14:45:32.983Z,1.07
2019-03-01T14:47:29.057Z,1.10
2019-03-01T14:49:21.673Z,1.20
2019-03-01T14:51:16.238Z,1.10
2019-03-01T14:53:09.132Z,1.17
2019-03-01T14:55:02.247Z,0.95
2019-03-01T14:56:55.249Z,1.20
2019-03-01T14:58:59.846Z,1.10
2019-03-01T15:01:13.052Z,1.00
2019-03-01T15:03:16.478Z,1.17
2019-03-01T15:05:16.932Z,1.00
2019-03-01T15:07:04.389Z,1.22
2019-03-01T15:08:57.336Z,1.10
2019-03-01T15:10:50.829Z,1.12
2019-03-01T15:12:44.029Z,1.12
2019-03-01T15:14:37.164Z,1.00
2019-03-01T15:16:30.991Z,1.07
2019-03-01T15:18:25.105Z,1.30
2019-03-01T15:20:24.181Z,1.20
2019-03-01T15:22:15.997Z,1.30
2019-03-01T15:24:09.102Z,1.22
2019-03-01T15:26:02.375Z,1.20
2019-03-01T15:29:47.235Z,1.25
2019-03-01T15:31:40.727Z,1.70
2019-03-01T15:33:33.222Z,1.15
2019-03-01T15:37:18.725Z,1.10
2019-03-01T15:41:06.527Z,1.10
2019-03-01T15:42:59.684Z,1.05
2019-03-01T15:44:52.489Z,1.12
2019-03-01T15:46:46.318Z,1.37
2019-03-01T15:48:40.763Z,1.75
2019-03-01T15:52:26.256Z,1.60
2019-03-01T15:54:19.368Z,1.60
2019-03-01T15:56:11.867Z,1.10
2019-03-01T15:58:04.871Z,1.87
2019-03-01T16:01:50.115Z,3.47
2019-03-01T16:03:43.245Z,1.65
2019-03-01T16:05:38.312Z,1.75
2019-03-01T16:07:32.322Z,1.62
2019-03-01T16:09:26.420Z,1.80
2019-03-01T16:11:19.882Z,2.00
2019-03-01T16:15:10.580Z,1.50
2019-03-01T16:17:05.248Z,1.77
2019-03-01T16:18:58.520Z,1.80
2019-03-01T16:20:51.767Z,3.92
2019-03-01T16:22:44.490Z,3.98
2019-03-01T16:24:37.406Z,2.35
2019-03-01T16:26:33.555Z,2.17
2019-03-01T16:28:27.420Z,2.00
2019-03-01T16:30:21.367Z,2.70
2019-03-01T16:32:15.547Z,2.60
2019-03-01T16:34:08.609Z,2.98
2019-03-01T16:36:03.350Z,2.72
2019-03-01T16:38:02.515Z,3.00
2019-03-01T16:39:56.085Z,3.22
2019-03-01T16:41:51.849Z,2.98
2019-03-01T16:43:45.038Z,2.67
2019-03-01T16:45:38.351Z,2.92
2019-03-01T16:49:27.098Z,3.42
2019-03-01T16:51:18.602Z,3.35
2019-03-01T16:53:13.864Z,3.37
2019-03-01T16:55:24.431Z,3.25
2019-03-01T16:57:16.116Z,3.27
2019-03-01T16:59:19.579Z,4.60
2019-03-01T17:01:12.964Z,4.85
2019-03-01T17:05:08.808Z,6.25
2019-03-01T17:07:04.422Z,6.60
2019-03-01T17:08:59.566Z,6.87
2019-03-01T17:10:54.151Z,6.25
2019-03-01T17:12:48.769Z,6.78
2019-03-01T17:14:41.872Z,7.53
2019-03-01T17:16:35.153Z,7.50
2019-03-01T17:18:31.095Z,8.43
2019-03-01T17:20:24.798Z,6.85
2019-03-01T17:22:18.965Z,8.03
2019-03-01T17:24:15.549Z,8.10
2019-03-01T17:26:07.788Z,6.33
2019-03-01T17:28:00.630Z,6.75
2019-03-01T17:29:53.627Z,5.85
2019-03-01T17:31:46.813Z,5.05
2019-03-01T17:33:41.035Z,5.83
2019-03-01T17:35:34.415Z,6.25
2019-03-01T17:37:28.843Z,6.15
2019-03-01T17:39:22.981Z,5.58
2019-03-01T17:41:15.951Z,5.90
2019-03-01T17:46:56.296Z,5.12
2019-03-01T17:48:54.218Z,5.28
2019-03-01T17:50:46.096Z,6.72
2019-03-01T17:54:31.493Z,5.53
2019-03-01T17:56:24.433Z,5.78
2019-03-01T18:00:21.620Z,6.35
2019-03-01T18:02:15.742Z,5.80
2019-03-01T18:04:10.200Z,5.83
2019-03-01T18:06:04.972Z,6.72
2019-03-01T18:08:03.524Z,7.17
2019-03-01T18:09:55.272Z,7.40
2019-03-01T18:11:49.615Z,7.35
2019-03-01T18:13:48.120Z,7.47
2019-03-01T18:15:45.042Z,7.62
2019-03-01T18:17:38.942Z,8.55
2019-03-01T18:19:33.646Z,8.40
2019-03-01T18:21:26.908Z,7.95
2019-03-01T18:23:20.679Z,8.60
2019-03-01T18:25:14.781Z,8.08
2019-03-01T18:27:08.181Z,7.62
2019-03-01T18:29:04.819Z,8.08
2019-03-01T18:30:57.872Z,7.62
2019-03-01T18:34:47.482Z,8.05
2019-03-01T18:36:42.872Z,9.20
2019-03-01T18:38:37.213Z,9.18
2019-03-01T18:40:30.234Z,9.18
2019-03-01T18:42:17.759Z,9.35
2019-03-01T18:43:52.023Z,8.70
2019-03-01T18:45:28.564Z,9.13
2019-03-01T18:47:02.899Z,8.80
2019-03-01T18:48:40.500Z,10.53
2019-03-01T18:50:27.637Z,9.75
2019-03-01T18:52:04.020Z,9.30
2019-03-01T18:53:38.479Z,10.53
2019-03-01T18:55:17.511Z,9.18
2019-03-01T18:56:52.123Z,9.00
2019-03-01T18:58:26.451Z,8.53
2019-03-01T19:00:02.326Z,8.83
2019-03-01T19:01:42.969Z,8.40
2019-03-01T19:03:18.851Z,8.38
2019-03-01T19:04:53.307Z,7.72
2019-03-01T19:06:29.300Z,8.63
2019-03-01T19:08:06.120Z,7.37
2019-03-01T19:09:40.730Z,9.00
2019-03-01T19:11:17.741Z,8.10
2019-03-01T19:12:55.498Z,7.85
2019-03-01T19:14:31.365Z,7.72
2019-03-01T19:16:08.613Z,7.08
2019-03-01T19:17:48.320Z,8.00
2019-03-01T19:19:24.443Z,7.67
2019-03-01T19:21:05.109Z,7.50
2019-03-01T19:22:40.684Z,7.15
2019-03-01T19:24:16.644Z,7.05
2019-03-01T19:25:52.993Z,8.03
2019-03-01T19:27:31.707Z,6.83
2019-03-01T19:29:07.221Z,7.00
2019-03-01T19:30:42.625Z,6.70
2019-03-01T19:32:23.634Z,7.53
2019-03-01T19:33:59.089Z,7.03
2019-03-01T19:35:34.872Z,7.12
2019-03-01T19:37:13.325Z,6.72
2019-03-01T19:38:49.357Z,6.80
2019-03-01T19:40:24.491Z,6.45
2019-03-01T19:42:03.595Z,6.42
2019-03-01T19:43:58.019Z,6.72
2019-03-01T19:45:53.783Z,6.53
2019-03-01T19:47:51.012Z,6.12
2019-03-01T19:49:45.192Z,6.40
2019-03-01T19:51:39.388Z,6.28
2019-03-01T19:53:33.437Z,6.83
2019-03-01T19:55:28.067Z,6.90
2019-03-01T19:57:28.686Z,6.92
2019-03-01T19:59:23.119Z,7.45
2019-03-01T20:01:17.948Z,7.25
2019-03-01T20:03:14.560Z,6.62
2019-03-01T20:05:13.163Z,7.42
2019-03-01T20:07:06.025Z,7.10
2019-03-01T20:10:56.424Z,6.45
2019-03-01T20:14:44.965Z,6.65
2019-03-01T20:16:38.913Z,6.30
2019-03-01T20:18:31.441Z,7.12
2019-03-01T20:20:29.973Z,6.80
2019-03-01T20:22:22.168Z,7.78
2019-03-01T20:26:09.943Z,7.50
2019-03-01T20:28:07.276Z,7.15
2019-03-01T20:30:04.291Z,7.28
2019-03-01T20:31:59.276Z,7.67
2019-03-01T20:33:54.079Z,7.65
2019-03-01T20:35:48.701Z,7.17
2019-03-01T20:37:41.863Z,8.50
2019-03-01T20:39:36.489Z,7.50
2019-03-01T20:41:35.882Z,8.55
2019-03-01T20:43:28.873Z,8.63
2019-03-01T20:45:38.590Z,7.65
2019-03-01T20:47:31.908Z,8.45
2019-03-01T20:51:26.546Z,9.18
2019-03-01T20:53:16.098Z,10.03
2019-03-01T20:55:15.205Z,9.55
2019-03-01T20:57:08.134Z,10.28
2019-03-01T20:59:04.120Z,10.63
2019-03-01T21:00:58.834Z,10.82
2019-03-01T21:02:51.927Z,10.35
2019-03-01T21:06:43.000Z,10.82
2019-03-01T21:08:37.632Z,11.70
2019-03-01T21:10:33.145Z,12.33
2019-03-01T21:12:26.336Z,11.18
2019-03-01T21:14:23.761Z,13.78
2019-03-01T21:16:19.908Z,12.25
2019-03-01T21:18:13.016Z,13.75
2019-03-01T21:20:15.763Z,13.80
2019-03-01T21:22:07.069Z,13.05
2019-03-01T21:24:01.529Z,11.97
2019-03-01T21:25:54.297Z,12.50
2019-03-01T21:27:48.735Z,12.55
2019-03-01T21:29:44.659Z,12.20
2019-03-01T21:31:36.595Z,11.93
2019-03-01T21:33:29.860Z,13.30
2019-03-01T21:35:23.043Z,11.83
2019-03-01T21:37:16.654Z,11.80
2019-03-01T21:39:09.887Z,12.88
2019-03-01T21:41:06.332Z,13.68
2019-03-01T21:43:00.069Z,13.08
2019-03-01T21:44:53.078Z,12.10
2019-03-01T21:46:46.973Z,12.93
2019-03-01T21:48:40.047Z,12.47
2019-03-01T21:52:26.515Z,10.80
2019-03-01T21:54:19.901Z,15.63
2019-03-01T21:56:13.658Z,17.05
2019-03-01T21:58:07.795Z,15.93
2019-03-01T22:00:01.488Z,19.40
2019-03-01T22:01:56.150Z,18.00
2019-03-01T22:03:49.467Z,20.05
2019-03-01T22:05:45.221Z,18.60
2019-03-01T22:07:38.255Z,18.95
2019-03-01T22:09:31.795Z,19.60
2019-03-01T22:11:24.817Z,18.20
2019-03-01T22:13:17.420Z,18.23
2019-03-01T22:15:21.484Z,19.05
2019-03-01T22:17:14.473Z,20.35
2019-03-01T22:19:07.696Z,21.33
2019-03-01T22:21:00.652Z,24.07
2019-03-01T22:24:45.813Z,26.33
2019-03-01T22:26:39.123Z,26.52
2019-03-01T22:28:32.710Z,24.92
2019-03-01T22:30:33.691Z,26.52
2019-03-01T22:32:26.776Z,28.85
2019-03-01T22:34:20.267Z,27.07
2019-03-01T22:36:15.275Z,25.77
2019-03-01T22:38:08.592Z,26.93
2019-03-01T22:40:03.133Z,27.77
2019-03-01T22:41:56.337Z,25.48
2019-03-01T22:43:48.889Z,24.23
2019-03-01T22:45:41.872Z,26.82
2019-03-01T22:47:36.055Z,27.00
2019-03-01T22:49:31.759Z,26.70
2019-03-01T22:51:24.484Z,25.90
2019-03-01T22:53:17.453Z,27.90
2019-03-01T22:55:12.644Z,28.05
2019-03-01T22:57:06.598Z,27.27
2019-03-01T23:00:59.460Z,26.15
2019-03-01T23:02:52.671Z,27.07
2019-03-01T23:04:45.684Z,27.75
2019-03-01T23:06:38.555Z,28.25
2019-03-01T23:08:35.471Z,23.70
2019-03-01T23:10:26.619Z,26.00
2019-03-01T23:12:19.883Z,25.68
2019-03-01T23:14:12.921Z,26.40
2019-03-01T23:16:06.358Z,24.60
2019-03-01T23:18:01.820Z,26.25
2019-03-01T23:19:53.850Z,25.70
2019-03-01T23:21:46.756Z,25.25
2019-03-01T23:23:39.612Z,29.50
2019-03-01T23:25:32.280Z,28.65
2019-03-01T23:27:28.451Z,25.70
2019-03-01T23:29:20.275Z,26.70
2019-03-01T23:31:13.112Z,24.77
2019-03-01T23:33:05.979Z,23.47
2019-03-01T23:34:59.020Z,22.58
2019-03-01T23:36:51.755Z,21.60
2019-03-01T23:38:46.606Z,21.95
2019-03-01T23:40:39.724Z,22.87
2019-03-01T23:42:34.156Z,22.42
2019-03-01T23:44:26.980Z,19.60
2019-03-01T23:46:20.836Z,20.40
2019-03-01T23:50:10.904Z,18.35
2019-03-01T23:52:03.989Z,19.82
2019-03-01T23:53:56.788Z,18.55
2019-03-01T23:55:51.009Z,18.07
2019-03-01T23:57:44.849Z,18.98
2019-03-01T23:59:37.655Z,21.02
